createdAt,value
2018-03-28T00:00:19.285Z,8.05
2018-03-28T00:01:21.747Z,7.90
2018-03-28T00:02:24.634Z,9.23
2018-03-28T00:03:27.518Z,9.55
2018-03-28T00:04:30.006Z,11.00
2018-03-28T00:05:33.267Z,14.98
2018-03-28T00:06:36.510Z,18.85
2018-03-28T00:07:39.755Z,12.95
2018-03-28T00:08:43.009Z,12.00
2018-03-28T00:09:45.512Z,12.75
2018-03-28T00:10:48.809Z,13.98
2018-03-28T00:11:51.322Z,15.65
2018-03-28T00:12:53.799Z,11.63
2018-03-28T00:13:56.365Z,12.93
2018-03-28T00:14:58.990Z,12.10
2018-03-28T00:16:02.400Z,12.80
2018-03-28T00:17:04.912Z,14.68
2018-03-28T00:18:07.439Z,13.70
2018-03-28T00:19:09.909Z,10.05
2018-03-28T00:20:12.377Z,13.25
2018-03-28T00:21:15.003Z,11.55
2018-03-28T00:22:18.204Z,11.70
2018-03-28T00:23:20.943Z,12.95
2018-03-28T00:24:23.462Z,15.13
2018-03-28T00:25:25.939Z,11.95
2018-03-28T00:26:28.511Z,18.23
2018-03-28T00:27:31.016Z,11.50
2018-03-28T00:28:34.326Z,12.45
2018-03-28T00:29:36.852Z,9.95
2018-03-28T00:30:40.200Z,16.30
2018-03-28T00:31:43.592Z,14.65
2018-03-28T00:32:46.229Z,10.77
2018-03-28T00:33:48.750Z,11.48
2018-03-28T00:34:51.258Z,14.60
2018-03-28T00:35:54.499Z,13.73
2018-03-28T00:36:57.723Z,11.45
2018-03-28T00:38:01.548Z,12.73
2018-03-28T00:39:04.158Z,10.93
2018-03-28T00:40:07.386Z,13.88
2018-03-28T00:41:10.792Z,9.55
2018-03-28T00:42:13.259Z,10.55
2018-03-28T00:43:16.012Z,14.18
2018-03-28T00:44:18.629Z,10.10
2018-03-28T00:45:21.103Z,10.88
2018-03-28T00:46:23.597Z,10.02
2018-03-28T00:47:26.183Z,10.38
2018-03-28T00:48:29.425Z,11.35
2018-03-28T00:49:32.671Z,13.25
2018-03-28T00:50:35.199Z,10.60
2018-03-28T00:51:37.701Z,9.70
2018-03-28T00:52:41.071Z,8.90
2018-03-28T00:53:43.564Z,11.30
2018-03-28T00:54:46.030Z,9.65
2018-03-28T00:55:48.517Z,9.70
2018-03-28T00:56:51.051Z,9.35
2018-03-28T00:57:53.588Z,9.85
2018-03-28T00:58:56.765Z,11.30
2018-03-28T00:59:59.284Z,10.15
2018-03-28T01:01:01.742Z,9.38
2018-03-28T01:02:04.228Z,11.98
2018-03-28T01:03:06.712Z,12.15
2018-03-28T01:04:09.958Z,10.40
2018-03-28T01:05:12.599Z,10.23
2018-03-28T01:06:15.822Z,11.63
2018-03-28T01:07:18.405Z,12.32
2018-03-28T01:08:20.907Z,10.80
2018-03-28T01:09:23.415Z,10.27
2018-03-28T01:10:26.673Z,12.15
2018-03-28T01:11:29.152Z,10.38
2018-03-28T01:12:32.469Z,11.27
2018-03-28T01:13:34.949Z,11.68
2018-03-28T01:14:38.274Z,11.38
2018-03-28T01:15:41.528Z,10.85
2018-03-28T01:16:44.078Z,10.25
2018-03-28T01:17:46.587Z,10.85
2018-03-28T01:18:49.852Z,10.90
2018-03-28T01:19:52.394Z,10.30
2018-03-28T01:20:54.905Z,10.52
2018-03-28T01:21:57.417Z,9.75
2018-03-28T01:23:00.667Z,11.02
2018-03-28T01:24:03.138Z,10.13
2018-03-28T01:25:05.630Z,11.35
2018-03-28T01:26:08.096Z,11.00
2018-03-28T01:27:10.616Z,12.05
2018-03-28T01:28:13.132Z,10.57
2018-03-28T01:29:15.629Z,10.65
2018-03-28T01:30:18.196Z,11.35
2018-03-28T01:31:20.681Z,9.98
2018-03-28T01:32:23.164Z,10.25
2018-03-28T01:33:25.682Z,11.10
2018-03-28T01:34:28.161Z,10.52
2018-03-28T01:35:30.643Z,10.13
2018-03-28T01:36:33.115Z,11.25
2018-03-28T01:37:35.603Z,10.77
2018-03-28T01:38:39.053Z,11.82
2018-03-28T01:39:42.329Z,11.40
2018-03-28T01:40:44.890Z,10.63
2018-03-28T01:41:47.463Z,12.25
2018-03-28T01:42:49.932Z,14.55
2018-03-28T01:43:52.422Z,14.32
2018-03-28T01:44:54.938Z,11.88
2018-03-28T01:45:58.163Z,12.85
2018-03-28T01:47:01.407Z,52.50
2018-03-28T01:48:04.656Z,11.00
2018-03-28T01:49:07.886Z,11.43
2018-03-28T01:50:13.913Z,10.60
2018-03-28T01:51:16.384Z,10.10
2018-03-28T01:52:18.851Z,13.02
2018-03-28T01:53:22.073Z,12.43
2018-03-28T01:54:24.555Z,12.02
2018-03-28T01:55:27.046Z,13.70
2018-03-28T01:56:30.302Z,12.65
2018-03-28T01:57:32.775Z,12.90
2018-03-28T01:58:35.247Z,14.05
2018-03-28T01:59:37.818Z,12.45
2018-03-28T02:00:40.370Z,15.45
2018-03-28T02:01:42.889Z,15.27
2018-03-28T02:02:45.359Z,12.60
2018-03-28T02:03:47.851Z,13.05
2018-03-28T02:04:51.095Z,14.60
2018-03-28T02:05:54.348Z,14.15
2018-03-28T02:06:57.625Z,13.95
2018-03-28T02:08:00.099Z,12.15
2018-03-28T02:09:02.636Z,13.05
2018-03-28T02:10:05.894Z,12.00
2018-03-28T02:11:08.370Z,13.80
2018-03-28T02:12:10.853Z,12.02
2018-03-28T02:13:13.362Z,12.00
2018-03-28T02:14:16.611Z,11.00
2018-03-28T02:15:19.058Z,12.55
2018-03-28T02:16:21.530Z,12.80
2018-03-28T02:17:24.019Z,11.77
2018-03-28T02:18:26.480Z,11.50
2018-03-28T02:19:28.985Z,11.88
2018-03-28T02:20:31.529Z,12.10
2018-03-28T02:21:34.028Z,12.60
2018-03-28T02:22:36.522Z,12.25
2018-03-28T02:23:39.036Z,13.13
2018-03-28T02:24:42.281Z,13.15
2018-03-28T02:25:44.874Z,12.18
2018-03-28T02:26:48.226Z,12.15
2018-03-28T02:27:50.689Z,13.27
2018-03-28T02:28:53.232Z,12.85
2018-03-28T02:29:55.739Z,12.30
2018-03-28T02:30:58.233Z,13.27
2018-03-28T02:32:01.486Z,13.05
2018-03-28T02:33:04.720Z,14.38
2018-03-28T02:34:07.947Z,12.15
2018-03-28T02:35:10.721Z,13.10
2018-03-28T02:36:13.168Z,13.88
2018-03-28T02:37:15.704Z,13.07
2018-03-28T02:38:18.772Z,12.90
2018-03-28T02:39:21.250Z,13.50
2018-03-28T02:40:23.751Z,12.48
2018-03-28T02:41:26.244Z,13.32
2018-03-28T02:42:28.767Z,14.35
2018-03-28T02:43:31.261Z,14.50
2018-03-28T02:44:33.752Z,13.82
2018-03-28T02:45:37.116Z,14.02
2018-03-28T02:46:39.645Z,14.32
2018-03-28T02:47:42.191Z,13.52
2018-03-28T02:48:44.688Z,15.25
2018-03-28T02:49:47.144Z,13.23
2018-03-28T02:50:49.625Z,15.13
2018-03-28T02:51:52.869Z,15.10
2018-03-28T02:52:55.358Z,14.70
2018-03-28T02:53:58.718Z,14.32
2018-03-28T02:55:01.182Z,15.07
2018-03-28T02:56:03.646Z,14.75
2018-03-28T02:57:06.104Z,16.00
2018-03-28T02:58:09.371Z,14.70
2018-03-28T02:59:11.875Z,15.65
2018-03-28T03:00:14.367Z,14.57
2018-03-28T03:01:16.825Z,15.93
2018-03-28T03:02:19.347Z,15.43
2018-03-28T03:03:22.606Z,16.30
2018-03-28T03:04:25.081Z,16.67
2018-03-28T03:05:27.598Z,17.08
2018-03-28T03:06:30.163Z,17.02
2018-03-28T03:07:33.443Z,16.75
2018-03-28T03:08:35.967Z,16.12
2018-03-28T03:09:38.437Z,19.87
2018-03-28T03:10:41.007Z,25.35
2018-03-28T03:11:43.520Z,16.80
2018-03-28T03:12:46.048Z,27.75
2018-03-28T03:13:48.555Z,27.10
2018-03-28T03:14:51.796Z,18.45
2018-03-28T03:15:55.042Z,16.92
2018-03-28T03:16:58.280Z,15.60
2018-03-28T03:18:01.579Z,19.15
2018-03-28T03:19:04.051Z,19.40
2018-03-28T03:20:07.288Z,19.08
2018-03-28T03:21:10.519Z,15.73
2018-03-28T03:22:12.972Z,18.20
2018-03-28T03:23:15.472Z,19.12
2018-03-28T03:24:17.950Z,17.75
2018-03-28T03:25:20.456Z,16.20
2018-03-28T03:26:22.986Z,19.35
2018-03-28T03:27:25.487Z,18.23
2018-03-28T03:28:28.729Z,18.40
2018-03-28T03:29:31.996Z,18.95
2018-03-28T03:30:34.535Z,17.12
2018-03-28T03:31:37.010Z,18.87
2018-03-28T03:32:39.606Z,20.35
2018-03-28T03:33:42.119Z,19.77
2018-03-28T03:34:44.599Z,18.05
2018-03-28T03:35:47.859Z,17.52
2018-03-28T03:36:51.140Z,17.45
2018-03-28T03:37:53.604Z,18.25
2018-03-28T03:38:56.860Z,20.37
2018-03-28T03:40:00.158Z,18.90
2018-03-28T03:41:02.657Z,19.08
2018-03-28T03:42:05.126Z,20.10
2018-03-28T03:43:07.582Z,19.27
2018-03-28T03:44:10.832Z,20.65
2018-03-28T03:45:13.360Z,17.98
2018-03-28T03:46:15.932Z,20.65
2018-03-28T03:47:18.422Z,19.98
2018-03-28T03:48:20.984Z,19.80
2018-03-28T03:49:24.230Z,18.98
2018-03-28T03:50:26.747Z,20.08
2018-03-28T03:51:29.226Z,18.35
2018-03-28T03:52:31.726Z,20.08
2018-03-28T03:53:34.999Z,19.55
2018-03-28T03:54:37.523Z,21.10
2018-03-28T03:55:39.997Z,20.40
2018-03-28T03:56:42.653Z,20.10
2018-03-28T03:57:45.150Z,20.10
2018-03-28T03:58:49.170Z,20.50
2018-03-28T03:59:51.715Z,21.98
2018-03-28T04:00:54.281Z,21.33
2018-03-28T04:01:56.855Z,20.42
2018-03-28T04:02:59.315Z,20.65
2018-03-28T04:04:01.862Z,20.70
2018-03-28T04:05:04.347Z,19.85
2018-03-28T04:06:06.835Z,20.88
2018-03-28T04:07:09.290Z,19.83
2018-03-28T04:08:11.884Z,20.40
2018-03-28T04:09:15.501Z,20.88
2018-03-28T04:10:18.829Z,20.45
2018-03-28T04:11:21.325Z,20.45
2018-03-28T04:12:23.816Z,20.55
2018-03-28T04:13:26.267Z,19.92
2018-03-28T04:14:29.011Z,20.45
2018-03-28T04:15:31.551Z,22.60
2018-03-28T04:16:34.056Z,20.23
2018-03-28T04:17:36.578Z,20.60
2018-03-28T04:18:39.078Z,21.33
2018-03-28T04:19:41.607Z,22.13
2018-03-28T04:20:44.838Z,21.42
2018-03-28T04:21:48.079Z,21.55
2018-03-28T04:22:52.400Z,21.62
2018-03-28T04:23:54.885Z,20.90
2018-03-28T04:24:58.118Z,21.98
2018-03-28T04:26:01.407Z,20.73
2018-03-28T04:27:03.880Z,21.42
2018-03-28T04:28:07.132Z,21.08
2018-03-28T04:29:11.967Z,21.15
2018-03-28T04:30:14.429Z,21.30
2018-03-28T04:31:17.696Z,21.20
2018-03-28T04:32:20.232Z,22.50
2018-03-28T04:33:22.767Z,22.40
2018-03-28T04:34:25.252Z,21.25
2018-03-28T04:35:27.755Z,21.77
2018-03-28T04:36:31.007Z,23.08
2018-03-28T04:37:34.280Z,20.98
2018-03-28T04:38:37.548Z,21.75
2018-03-28T04:39:40.065Z,22.00
2018-03-28T04:40:42.577Z,21.25
2018-03-28T04:41:45.057Z,22.48
2018-03-28T04:42:47.582Z,21.20
2018-03-28T04:43:50.125Z,22.30
2018-03-28T04:44:52.873Z,22.30
2018-03-28T04:45:56.138Z,21.55
2018-03-28T04:46:58.589Z,22.10
2018-03-28T04:48:01.081Z,21.15
2018-03-28T04:49:03.618Z,21.95
2018-03-28T04:50:06.159Z,22.45
2018-03-28T04:51:08.651Z,26.35
2018-03-28T04:52:11.907Z,26.27
2018-03-28T04:53:14.448Z,26.30
2018-03-28T04:54:17.306Z,23.50
2018-03-28T04:55:19.803Z,22.73
2018-03-28T04:56:22.474Z,28.10
2018-03-28T04:57:25.808Z,23.95
2018-03-28T04:58:28.303Z,22.10
2018-03-28T04:59:30.795Z,25.37
2018-03-28T05:00:34.107Z,23.83
2018-03-28T05:01:36.607Z,23.85
2018-03-28T05:02:39.092Z,24.95
2018-03-28T05:03:41.690Z,25.10
2018-03-28T05:04:44.162Z,23.92
2018-03-28T05:05:46.672Z,25.77
2018-03-28T05:06:49.932Z,22.73
2018-03-28T05:07:52.468Z,22.13
2018-03-28T05:08:54.974Z,23.83
2018-03-28T05:09:57.650Z,22.52
2018-03-28T05:11:00.109Z,23.23
2018-03-28T05:12:03.490Z,26.20
2018-03-28T05:13:06.060Z,26.27
2018-03-28T05:14:10.062Z,23.25
2018-03-28T05:15:12.724Z,24.77
2018-03-28T05:16:15.547Z,24.12
2018-03-28T05:17:18.549Z,22.75
2018-03-28T05:18:21.937Z,24.27
2018-03-28T05:19:24.500Z,24.92
2018-03-28T05:20:26.986Z,25.90
2018-03-28T05:21:29.475Z,24.02
2018-03-28T05:22:32.058Z,25.35
2018-03-28T05:23:35.293Z,24.55
2018-03-28T05:24:38.204Z,25.20
2018-03-28T05:25:40.756Z,24.75
2018-03-28T05:26:43.393Z,23.35
2018-03-28T05:27:45.842Z,25.15
2018-03-28T05:28:49.122Z,25.25
2018-03-28T05:29:51.605Z,25.77
2018-03-28T05:30:54.200Z,25.67
2018-03-28T05:31:56.716Z,25.05
2018-03-28T05:32:59.219Z,27.08
2018-03-28T05:34:02.486Z,24.55
2018-03-28T05:35:04.979Z,24.50
2018-03-28T05:36:07.454Z,25.10
2018-03-28T05:37:10.030Z,25.23
2018-03-28T05:38:12.548Z,25.20
2018-03-28T05:39:15.080Z,26.00
2018-03-28T05:40:17.579Z,23.70
2018-03-28T05:41:20.115Z,26.48
2018-03-28T05:42:23.356Z,24.80
2018-03-28T05:43:26.727Z,27.23
2018-03-28T05:44:29.260Z,25.37
2018-03-28T05:45:31.723Z,26.27
2018-03-28T05:46:34.204Z,26.08
2018-03-28T05:47:36.770Z,25.58
2018-03-28T05:48:39.251Z,26.02
2018-03-28T05:49:41.768Z,26.30
2018-03-28T05:50:44.217Z,25.83
2018-03-28T05:51:46.701Z,27.25
2018-03-28T05:52:49.948Z,26.15
2018-03-28T05:53:53.260Z,25.92
2018-03-28T05:54:55.969Z,26.08
2018-03-28T05:55:58.431Z,27.30
2018-03-28T05:57:00.939Z,27.08
2018-03-28T05:58:03.435Z,27.48
2018-03-28T05:59:05.930Z,26.12
2018-03-28T06:00:09.217Z,26.60
2018-03-28T06:01:11.734Z,28.75
2018-03-28T06:02:14.223Z,26.73
2018-03-28T06:03:17.451Z,27.48
2018-03-28T06:04:20.707Z,27.55
2018-03-28T06:05:24.086Z,29.33
2018-03-28T06:06:26.931Z,29.40
2018-03-28T06:07:29.452Z,29.67
2018-03-28T06:08:31.947Z,28.73
2018-03-28T06:09:35.202Z,28.52
2018-03-28T06:10:37.719Z,29.12
2018-03-28T06:11:40.236Z,28.92
2018-03-28T06:12:43.462Z,29.83
2018-03-28T06:13:46.007Z,39.38
2018-03-28T06:14:49.293Z,31.65
2018-03-28T06:15:51.864Z,43.15
2018-03-28T06:16:54.369Z,38.78
2018-03-28T06:17:57.727Z,31.35
2018-03-28T06:19:00.995Z,38.42
2018-03-28T06:20:04.241Z,41.70
2018-03-28T06:21:06.879Z,37.83
2018-03-28T06:22:09.366Z,37.28
2018-03-28T06:23:11.919Z,31.92
2018-03-28T06:24:15.158Z,30.95
2018-03-28T06:25:17.653Z,34.63
2018-03-28T06:26:20.219Z,34.13
2018-03-28T06:27:22.742Z,32.22
2018-03-28T06:28:25.211Z,32.00
2018-03-28T06:29:27.687Z,35.22
2018-03-28T06:30:30.235Z,36.70
2018-03-28T06:31:32.753Z,33.58
2018-03-28T06:32:35.264Z,32.60
2018-03-28T06:33:37.792Z,34.20
2018-03-28T06:34:40.287Z,33.13
2018-03-28T06:35:42.804Z,33.95
2018-03-28T06:36:45.363Z,36.38
2018-03-28T06:37:47.883Z,33.50
2018-03-28T06:38:51.121Z,34.83
2018-03-28T06:39:54.456Z,34.00
2018-03-28T06:40:57.721Z,35.00
2018-03-28T06:42:00.297Z,33.85
2018-03-28T06:43:02.769Z,33.65
2018-03-28T06:44:05.287Z,33.78
2018-03-28T06:45:08.555Z,35.78
2018-03-28T06:46:11.046Z,35.33
2018-03-28T06:47:14.333Z,35.33
2018-03-28T06:48:17.582Z,34.00
2018-03-28T06:49:20.124Z,32.80
2018-03-28T06:50:22.645Z,36.13
2018-03-28T06:51:25.155Z,37.83
2018-03-28T06:52:27.635Z,36.42
2018-03-28T06:53:31.261Z,35.63
2018-03-28T06:54:33.717Z,36.15
2018-03-28T06:55:37.005Z,35.38
2018-03-28T06:56:39.470Z,36.60
2018-03-28T06:57:42.019Z,35.00
2018-03-28T06:58:45.376Z,35.90
2018-03-28T06:59:47.924Z,35.70
2018-03-28T07:00:50.379Z,37.15
2018-03-28T07:01:52.875Z,37.97
2018-03-28T07:02:55.335Z,37.10
2018-03-28T07:03:57.821Z,35.08
2018-03-28T07:05:00.336Z,36.42
2018-03-28T07:06:02.882Z,36.88
2018-03-28T07:07:05.359Z,33.47
2018-03-28T07:08:08.636Z,36.30
2018-03-28T07:09:11.117Z,36.70
2018-03-28T07:10:14.349Z,36.35
2018-03-28T07:11:16.864Z,37.47
2018-03-28T07:12:19.411Z,34.83
2018-03-28T07:13:21.981Z,37.25
2018-03-28T07:14:24.495Z,35.83
2018-03-28T07:15:33.255Z,37.67
2018-03-28T07:16:35.857Z,38.47
2018-03-28T07:17:38.355Z,36.78
2018-03-28T07:18:41.210Z,36.38
2018-03-28T07:19:43.806Z,36.08
2018-03-28T07:20:46.326Z,36.53
2018-03-28T07:21:49.214Z,35.70
2018-03-28T07:22:51.825Z,37.70
2018-03-28T07:23:54.332Z,36.55
2018-03-28T07:24:56.900Z,38.05
2018-03-28T07:25:59.436Z,41.53
2018-03-28T07:27:01.996Z,37.15
2018-03-28T07:28:04.577Z,40.72
2018-03-28T07:29:16.708Z,37.65
2018-03-28T07:30:19.322Z,37.65
2018-03-28T07:31:24.535Z,40.40
2018-03-28T07:32:27.077Z,37.88
2018-03-28T07:33:29.625Z,37.75
2018-03-28T07:34:32.165Z,38.80
2018-03-28T07:35:35.455Z,36.67
2018-03-28T07:36:38.030Z,38.60
2018-03-28T07:37:41.346Z,39.20
2018-03-28T07:38:43.851Z,39.15
2018-03-28T07:39:46.368Z,41.17
2018-03-28T07:40:48.890Z,39.78
2018-03-28T07:41:52.282Z,42.85
2018-03-28T07:42:54.947Z,39.80
2018-03-28T07:43:57.469Z,39.40
2018-03-28T07:44:59.974Z,39.55
2018-03-28T07:46:03.775Z,41.13
2018-03-28T07:47:06.321Z,40.92
2018-03-28T07:48:08.933Z,41.60
2018-03-28T07:49:11.463Z,38.15
2018-03-28T07:50:13.963Z,40.03
2018-03-28T07:51:16.745Z,39.33
2018-03-28T07:52:19.815Z,38.25
2018-03-28T07:53:22.486Z,37.10
2018-03-28T07:54:24.960Z,45.38
2018-03-28T07:55:28.235Z,39.40
2018-03-28T07:56:30.772Z,43.90
2018-03-28T07:57:33.328Z,38.78
2018-03-28T07:58:39.899Z,42.08
2018-03-28T07:59:42.434Z,39.10
2018-03-28T08:00:44.920Z,42.25
2018-03-28T08:01:48.174Z,38.83
2018-03-28T08:02:50.752Z,39.40
2018-03-28T08:03:54.096Z,40.95
2018-03-28T08:04:56.612Z,40.25
2018-03-28T08:05:59.122Z,39.42
2018-03-28T08:07:10.509Z,39.35
2018-03-28T08:09:27.082Z,40.42
2018-03-28T08:10:29.695Z,42.58
2018-03-28T08:11:32.194Z,38.10
2018-03-28T08:13:59.952Z,37.83
2018-03-28T08:15:03.311Z,39.55
2018-03-28T08:16:09.447Z,40.63
2018-03-28T08:17:12.651Z,42.80
2018-03-28T08:18:15.187Z,42.25
2018-03-28T08:19:18.254Z,44.55
2018-03-28T08:21:34.692Z,39.58
2018-03-28T08:22:37.319Z,42.47
2018-03-28T08:23:39.853Z,40.78
2018-03-28T08:24:42.364Z,41.88
2018-03-28T08:25:45.518Z,43.78
2018-03-28T08:26:48.899Z,40.72
2018-03-28T08:27:51.960Z,43.87
2018-03-28T08:28:54.578Z,42.05
2018-03-28T08:29:57.579Z,44.85
2018-03-28T08:31:00.191Z,43.17
2018-03-28T08:32:02.880Z,45.40
2018-03-28T08:33:05.471Z,43.83
2018-03-28T08:34:09.598Z,47.40
2018-03-28T08:35:12.158Z,46.03
2018-03-28T08:36:19.883Z,43.10
2018-03-28T08:37:23.186Z,43.55
2018-03-28T08:38:25.696Z,44.78
2018-03-28T08:39:28.435Z,44.38
2018-03-28T08:40:30.951Z,45.05
2018-03-28T08:41:33.825Z,42.42
2018-03-28T08:42:36.378Z,45.12
2018-03-28T08:43:38.904Z,46.47
2018-03-28T08:44:41.508Z,48.35
2018-03-28T08:45:44.093Z,46.42
2018-03-28T08:46:46.626Z,49.08
2018-03-28T08:47:49.188Z,47.25
2018-03-28T08:48:51.772Z,48.83
2018-03-28T08:49:54.258Z,48.40
2018-03-28T08:50:56.839Z,47.88
2018-03-28T08:52:00.561Z,47.33
2018-03-28T08:53:03.092Z,47.95
2018-03-28T08:54:05.588Z,47.33
2018-03-28T08:55:08.073Z,45.63
2018-03-28T08:56:10.660Z,48.50
2018-03-28T08:57:14.806Z,45.15
2018-03-28T08:58:18.120Z,48.10
2018-03-28T08:59:20.774Z,49.03
2018-03-28T09:00:23.552Z,46.70
2018-03-28T09:01:26.091Z,47.10
2018-03-28T09:02:28.781Z,47.38
2018-03-28T09:03:31.975Z,46.63
2018-03-28T09:04:34.738Z,44.40
2018-03-28T09:05:37.382Z,46.53
2018-03-28T09:06:42.405Z,46.60
2018-03-28T09:07:45.237Z,43.90
2018-03-28T09:08:47.776Z,46.08
2018-03-28T09:09:58.452Z,48.30
2018-03-28T09:11:00.998Z,47.17
2018-03-28T09:12:03.512Z,49.20
2018-03-28T09:13:06.932Z,47.28
2018-03-28T09:14:09.510Z,49.97
2018-03-28T09:15:12.025Z,45.60
2018-03-28T09:16:14.550Z,45.67
2018-03-28T09:17:17.070Z,46.45
2018-03-28T09:18:19.578Z,48.17
2018-03-28T09:19:22.844Z,43.00
2018-03-28T09:20:25.399Z,45.05
2018-03-28T09:21:27.995Z,45.75
2018-03-28T09:22:30.567Z,44.88
2018-03-28T09:23:33.396Z,39.90
2018-03-28T09:24:35.898Z,43.08
2018-03-28T09:25:38.458Z,49.20
2018-03-28T09:26:41.024Z,48.03
2018-03-28T09:27:44.312Z,47.53
2018-03-28T09:28:46.855Z,45.80
2018-03-28T09:29:49.394Z,47.58
2018-03-28T09:30:51.935Z,43.38
2018-03-28T09:31:55.259Z,42.78
2018-03-28T09:32:58.513Z,46.55
2018-03-28T09:34:01.763Z,43.22
2018-03-28T09:35:05.035Z,41.28
2018-03-28T09:36:07.570Z,42.92
2018-03-28T09:37:10.058Z,45.75
2018-03-28T09:38:13.308Z,45.22
2018-03-28T09:39:15.877Z,41.97
2018-03-28T09:40:18.426Z,46.60
2018-03-28T09:41:20.915Z,43.58
2018-03-28T09:42:23.456Z,44.00
2018-03-28T09:43:25.972Z,43.53
2018-03-28T09:44:28.446Z,45.28
2018-03-28T09:45:31.721Z,45.17
2018-03-28T09:46:34.250Z,43.35
2018-03-28T09:47:37.259Z,43.83
2018-03-28T09:48:40.732Z,44.33
2018-03-28T09:49:43.244Z,42.88
2018-03-28T09:50:46.384Z,43.72
2018-03-28T09:51:49.641Z,46.17
2018-03-28T09:52:52.169Z,43.72
2018-03-28T09:53:54.710Z,44.83
2018-03-28T09:56:06.227Z,42.88
2018-03-28T09:57:08.676Z,43.58
2018-03-28T09:58:11.592Z,41.88
2018-03-28T09:59:14.075Z,40.83
2018-03-28T10:00:22.118Z,43.38
2018-03-28T10:01:30.551Z,41.10
2018-03-28T10:02:47.930Z,43.28
2018-03-28T10:03:51.268Z,40.75
2018-03-28T10:04:54.489Z,41.53
2018-03-28T10:05:56.959Z,41.80
2018-03-28T10:06:59.434Z,42.40
2018-03-28T10:08:01.922Z,42.85
2018-03-28T10:09:04.460Z,42.60
2018-03-28T10:10:06.938Z,43.85
2018-03-28T10:11:10.166Z,42.00
2018-03-28T10:12:12.645Z,41.05
2018-03-28T10:13:15.147Z,42.15
2018-03-28T10:14:18.436Z,41.47
2018-03-28T10:15:20.907Z,40.12
2018-03-28T10:16:24.143Z,41.60
2018-03-28T10:17:26.629Z,38.85
2018-03-28T10:18:29.117Z,41.42
2018-03-28T10:19:31.611Z,39.65
2018-03-28T10:20:34.882Z,40.00
2018-03-28T10:21:37.953Z,38.35
2018-03-28T10:22:40.628Z,39.80
2018-03-28T10:23:43.872Z,42.85
2018-03-28T10:24:47.107Z,39.90
2018-03-28T10:25:50.418Z,38.17
2018-03-28T10:26:53.008Z,42.50
2018-03-28T10:27:55.554Z,38.42
2018-03-28T10:28:58.156Z,40.00
2018-03-28T10:30:00.850Z,42.83
2018-03-28T10:31:03.411Z,41.05
2018-03-28T10:32:05.914Z,41.13
2018-03-28T10:33:09.178Z,40.72
2018-03-28T10:34:11.673Z,42.00
2018-03-28T10:35:14.145Z,40.90
2018-03-28T10:36:16.673Z,42.22
2018-03-28T10:37:19.246Z,40.60
2018-03-28T10:38:21.796Z,39.05
2018-03-28T10:39:25.045Z,39.63
2018-03-28T10:40:28.317Z,40.53
2018-03-28T10:41:31.511Z,40.00
2018-03-28T10:42:34.039Z,40.90
2018-03-28T10:43:37.271Z,40.03
2018-03-28T10:44:40.561Z,39.55
2018-03-28T10:45:43.047Z,39.17
2018-03-28T10:46:45.658Z,40.38
2018-03-28T10:47:48.265Z,41.55
2018-03-28T10:48:50.860Z,39.45
2018-03-28T10:49:53.338Z,41.22
2018-03-28T10:50:55.849Z,43.63
2018-03-28T10:51:58.334Z,45.75
2018-03-28T10:53:00.841Z,38.58
2018-03-28T10:54:04.709Z,40.95
2018-03-28T10:55:07.192Z,41.30
2018-03-28T10:56:09.779Z,41.13
2018-03-28T10:57:12.290Z,41.67
2018-03-28T10:58:14.837Z,43.40
2018-03-28T10:59:17.332Z,40.85
2018-03-28T11:00:19.885Z,40.28
2018-03-28T11:01:22.392Z,41.28
2018-03-28T11:02:24.910Z,42.22
2018-03-28T11:03:28.162Z,42.22
2018-03-28T11:04:30.760Z,43.10
2018-03-28T11:05:34.560Z,41.05
2018-03-28T11:06:37.103Z,40.95
2018-03-28T11:07:39.588Z,43.42
2018-03-28T11:08:42.852Z,44.97
2018-03-28T11:09:45.362Z,44.00
2018-03-28T11:10:47.942Z,41.47
2018-03-28T11:11:50.420Z,43.70
2018-03-28T11:12:52.902Z,41.37
2018-03-28T11:13:55.475Z,42.50
2018-03-28T11:14:57.990Z,41.22
2018-03-28T11:16:00.468Z,43.45
2018-03-28T11:17:02.957Z,43.30
2018-03-28T11:18:05.424Z,44.17
2018-03-28T11:19:07.937Z,43.78
2018-03-28T11:20:10.415Z,42.92
2018-03-28T11:21:12.878Z,45.97
2018-03-28T11:22:15.370Z,42.83
2018-03-28T11:23:17.841Z,44.92
2018-03-28T11:24:20.339Z,43.70
2018-03-28T11:25:22.802Z,42.28
2018-03-28T11:26:25.281Z,43.72
2018-03-28T11:27:27.754Z,44.40
2018-03-28T11:28:30.213Z,46.28
2018-03-28T11:29:32.747Z,44.38
2018-03-28T11:30:35.219Z,41.67
2018-03-28T11:31:37.696Z,45.95
2018-03-28T11:32:40.188Z,45.20
2018-03-28T11:33:42.736Z,43.25
2018-03-28T11:34:45.331Z,43.50
2018-03-28T11:35:48.567Z,43.85
2018-03-28T11:36:51.048Z,41.10
2018-03-28T11:37:53.541Z,43.50
2018-03-28T11:38:56.795Z,44.97
2018-03-28T11:40:00.088Z,44.40
2018-03-28T11:41:02.550Z,44.95
2018-03-28T11:42:05.779Z,41.72
2018-03-28T11:43:08.392Z,42.85
2018-03-28T11:44:10.837Z,42.45
2018-03-28T11:45:13.410Z,43.03
2018-03-28T11:46:15.884Z,41.40
2018-03-28T11:47:18.329Z,39.88
2018-03-28T11:48:21.616Z,41.03
2018-03-28T11:49:24.095Z,41.08
2018-03-28T11:50:27.385Z,41.42
2018-03-28T11:51:29.900Z,37.88
2018-03-28T11:52:32.432Z,39.67
2018-03-28T11:53:34.989Z,37.72
2018-03-28T11:54:38.260Z,38.53
2018-03-28T11:55:40.804Z,37.00
2018-03-28T11:56:43.291Z,35.20
2018-03-28T11:57:45.861Z,39.35
2018-03-28T11:58:48.343Z,38.85
2018-03-28T11:59:51.683Z,36.60
2018-03-28T12:00:54.974Z,38.53
2018-03-28T12:01:57.462Z,34.63
2018-03-28T12:03:00.038Z,35.63
2018-03-28T12:05:11.677Z,37.65
2018-03-28T12:06:14.165Z,37.55
2018-03-28T12:07:17.531Z,36.63
2018-03-28T12:08:20.137Z,36.65
2018-03-28T12:09:22.653Z,34.67
2018-03-28T12:10:26.831Z,38.85
2018-03-28T12:11:29.441Z,34.75
2018-03-28T12:12:31.954Z,34.20
2018-03-28T12:13:35.296Z,35.60
2018-03-28T12:14:38.205Z,36.28
2018-03-28T12:15:40.683Z,35.03
2018-03-28T12:16:43.213Z,34.75
2018-03-28T12:17:45.717Z,33.42
2018-03-28T12:18:48.216Z,35.53
2018-03-28T12:19:51.447Z,34.65
2018-03-28T12:20:53.923Z,34.65
2018-03-28T12:21:56.402Z,34.85
2018-03-28T12:22:58.884Z,34.83
2018-03-28T12:24:01.390Z,35.83
2018-03-28T12:25:03.912Z,34.13
2018-03-28T12:26:07.271Z,33.78
2018-03-28T12:27:09.826Z,32.72
2018-03-28T12:28:12.305Z,32.42
2018-03-28T12:29:14.844Z,33.58
2018-03-28T12:30:17.322Z,33.80
2018-03-28T12:31:19.811Z,34.05
2018-03-28T12:32:22.291Z,34.83
2018-03-28T12:33:25.642Z,34.80
2018-03-28T12:34:29.007Z,36.40
2018-03-28T12:35:31.491Z,34.85
2018-03-28T12:36:33.975Z,34.50
2018-03-28T12:37:36.464Z,32.55
2018-03-28T12:38:39.754Z,34.47
2018-03-28T12:39:42.304Z,34.25
2018-03-28T12:40:45.571Z,31.92
2018-03-28T12:41:48.840Z,34.05
2018-03-28T12:42:51.379Z,33.50
2018-03-28T12:43:53.861Z,33.83
2018-03-28T12:44:57.123Z,32.55
2018-03-28T12:45:59.595Z,33.20
2018-03-28T12:47:02.066Z,32.55
2018-03-28T12:48:05.285Z,32.15
2018-03-28T12:49:08.551Z,32.08
2018-03-28T12:50:11.802Z,32.55
2018-03-28T12:51:14.287Z,30.50
2018-03-28T12:52:16.789Z,31.85
2018-03-28T12:53:19.293Z,30.00
2018-03-28T12:54:21.778Z,32.15
2018-03-28T12:55:25.072Z,31.77
2018-03-28T12:56:27.612Z,31.55
2018-03-28T12:57:30.185Z,32.95
2018-03-28T12:58:33.467Z,33.25
2018-03-28T12:59:35.954Z,39.35
2018-03-28T13:00:39.185Z,47.10
2018-03-28T13:01:42.427Z,37.10
2018-03-28T13:02:45.666Z,42.15
2018-03-28T13:03:48.164Z,52.50
2018-03-28T13:04:50.640Z,34.75
2018-03-28T13:05:53.862Z,40.65
2018-03-28T13:06:57.128Z,38.97
2018-03-28T13:07:59.705Z,38.30
2018-03-28T13:09:02.192Z,35.33
2018-03-28T13:10:05.473Z,35.47
2018-03-28T13:11:07.947Z,38.00
2018-03-28T13:12:11.303Z,32.17
2018-03-28T13:13:13.789Z,36.08
2018-03-28T13:14:16.274Z,33.88
2018-03-28T13:15:18.774Z,39.45
2018-03-28T13:16:21.305Z,31.30
2018-03-28T13:17:24.560Z,36.90
2018-03-28T13:18:27.069Z,34.92
2018-03-28T13:19:30.302Z,36.90
2018-03-28T13:20:32.787Z,33.30
2018-03-28T13:21:35.346Z,37.80
2018-03-28T13:22:38.702Z,34.50
2018-03-28T13:23:41.177Z,32.97
2018-03-28T13:24:43.665Z,30.70
2018-03-28T13:25:46.160Z,30.65
2018-03-28T13:26:49.405Z,33.70
2018-03-28T13:27:52.655Z,31.85
2018-03-28T13:28:55.131Z,34.10
2018-03-28T13:29:57.602Z,32.88
2018-03-28T13:31:00.059Z,34.95
2018-03-28T13:32:02.540Z,33.70
2018-03-28T13:33:05.780Z,30.75
2018-03-28T13:34:08.999Z,36.13
2018-03-28T13:35:11.470Z,33.70
2018-03-28T13:36:13.964Z,33.97